Disclaimer

Please do not use the information listed here in-flight or in-navigation, as they are not provided to us by the airports but are provided by volunteers, so they might be outdated.

Search


Regions


Airport information page

Radio informations:
IQUITOS TWR - 118.5 MHz
IQUITOS APP - 124.1 MHz

Airport informations:
Latitude: 03° 47' 05.06" S
Longitude: 073° 18' 31.70" W
Elevation: 306 feet - 93 meters
Operating hours: N/A
Operating agency: Military-civil joint use airport
Timezone: UTC-5
Fuel: Jet A1, without icing nhibitor.

Runway information:
06/24 - 8202 x 148 feet< - >2500 x 45 meters

Recent METARs:
SPQT 190800Z VRB02KT 8000 -RA SCT008 OVC100 24/23 Q1008 RMK PP005
SPQT 190900Z VRB01KT 8000 -DZ BKN006 OVC100 24/24 Q1008 NOSIG RMK PP002
SPQT 190900Z VRB01KT 8000 -DZ BKN006 OVC100 24/24 Q1008 NOSIG RMK PP002

Airport on the map: